Time;durP1;ratioP1;P1;durP2;ratioP2;P2;SDS_P1;SDS_P2;PMS_P1;PMS_P2;Temp;Humidity;BMP_temperature;BMP_pressure;BME280_temperature;BME280_humidity;BME280_pressure;Samples;Min_cycle;Max_cycle;Signal;HPM_P1;HPM_P2
2022/09/26 00:01:58;;;;;;;10.13;7.87;;;;;;;11.44;100.00;154298.38;5035568;28;20439;-88
2022/09/26 00:04:27;;;;;;;10.40;7.50;;;;;;;11.43;100.00;154294.50;5017414;28;20447;-88
2022/09/26 00:06:56;;;;;;;9.20;8.00;;;;;;;11.40;100.00;154288.03;5033971;28;20551;-88
2022/09/26 00:09:25;;;;;;;9.67;8.10;;;;;;;11.40;100.00;154286.72;5017362;28;20436;-88
2022/09/26 00:11:52;;;;;;;11.80;9.20;;;;;;;11.36;100.00;154276.34;5000919;28;20476;-88
2022/09/26 00:14:21;;;;;;;10.30;8.37;;;;;;;11.35;100.00;154273.78;5001014;28;20490;-88
2022/09/26 00:16:48;;;;;;;9.10;8.20;;;;;;;11.35;100.00;154273.78;5001117;28;20438;-88
2022/09/26 00:19:15;;;;;;;10.20;8.03;;;;;;;11.29;100.00;154258.22;5005628;28;20458;-88
2022/09/26 00:21:41;;;;;;;9.87;8.00;;;;;;;11.28;100.00;154255.66;5037027;28;20493;-88
2022/09/26 00:24:08;;;;;;;10.60;7.97;;;;;;;11.20;100.00;154234.94;5053328;28;20432;-88
2022/09/26 00:26:37;;;;;;;10.73;8.37;;;;;;;11.15;100.00;154221.94;5036749;28;20522;-88
2022/09/26 00:29:06;;;;;;;10.93;8.27;;;;;;;11.12;100.00;154214.19;5036718;28;20423;-88
2022/09/26 00:31:34;;;;;;;10.93;9.30;;;;;;;11.11;100.00;154212.88;5036803;28;20442;-88
2022/09/26 00:34:02;;;;;;;12.50;7.70;;;;;;;11.10;100.00;154208.97;5036585;28;20438;-88
2022/09/26 00:36:29;;;;;;;10.20;8.30;;;;;;;11.11;100.00;154212.88;5050761;28;20868;-88
2022/09/26 00:38:55;;;;;;;10.80;7.67;;;;;;;11.09;100.00;154207.72;5019936;28;20504;-88
2022/09/26 00:41:23;;;;;;;12.57;7.40;;;;;;;11.08;100.00;154203.81;5036406;28;20546;-88
2022/09/26 00:43:52;;;;;;;10.20;8.33;;;;;;;11.06;100.00;154198.63;5020125;28;20469;-88
2022/09/26 00:46:28;;;;;;;11.07;8.37;;;;;;;11.05;100.00;154196.03;5020043;28;20546;-88
2022/09/26 00:49:01;;;;;;;12.40;8.80;;;;;;;11.01;100.00;154188.25;5019879;28;20427;-88
2022/09/26 00:51:28;;;;;;;12.53;7.77;;;;;;;10.96;100.00;154174.06;5019935;28;20800;-88
2022/09/26 00:53:55;;;;;;;8.30;7.40;;;;;;;10.93;100.00;154167.53;5054260;28;20415;-88
2022/09/26 00:56:25;;;;;;;10.23;8.47;;;;;;;10.89;100.00;154157.19;5036370;28;20445;-88
2022/09/26 00:58:56;;;;;;;8.80;7.90;;;;;;;10.83;100.00;154141.63;5020028;28;21018;-88
2022/09/26 01:01:24;;;;;;;8.80;7.90;;;;;;;10.79;100.00;154131.28;5019700;28;20545;-88
2022/09/26 01:03:51;;;;;;;11.27;7.73;;;;;;;10.75;100.00;154120.91;5036116;28;20815;-88
2022/09/26 01:06:18;;;;;;;10.27;8.17;;;;;;;10.72;100.00;154113.13;5036005;28;20443;-88
2022/09/26 01:08:50;;;;;;;10.90;8.83;;;;;;;10.68;100.00;154101.50;5035266;28;20442;-88
2022/09/26 01:11:17;;;;;;;9.67;7.43;;;;;;;10.62;100.00;154087.25;5019408;28;20443;-88
2022/09/26 01:13:45;;;;;;;9.50;7.03;;;;;;;10.61;100.00;154083.38;5019432;28;20918;-88
2022/09/26 01:16:13;;;;;;;8.97;7.10;;;;;;;10.55;100.00;154069.13;5019521;28;20795;-87
2022/09/26 01:18:40;;;;;;;9.90;7.73;;;;;;;10.50;100.00;154056.19;5035621;28;20470;-88
2022/09/26 01:21:31;;;;;;;9.43;8.30;;;;;;;10.47;100.00;154048.41;5035604;28;20435;-88
2022/09/26 01:24:12;;;;;;;13.23;9.43;;;;;;;10.43;100.00;154036.78;5035594;28;20430;-88
2022/09/26 01:27:04;;;;;;;8.03;7.23;;;;;;;10.38;100.00;154025.09;5035714;28;20955;-88
2022/09/26 01:30:09;;;;;;;12.13;8.70;;;;;;;10.31;100.00;154007.00;5024554;28;20870;-88
2022/09/26 01:33:02;;;;;;;9.27;7.00;;;;;;;10.28;100.00;154000.50;4999461;28;20946;-88
2022/09/26 01:35:42;;;;;;;13.03;7.80;;;;;;;10.27;100.00;153996.66;5002014;28;20907;-88
2022/09/26 01:38:19;;;;;;;10.10;8.50;;;;;;;10.22;100.00;153984.97;5015442;28;20978;-88
2022/09/26 01:40:56;;;;;;;17.50;8.27;;;;;;;10.19;100.00;153975.94;5013804;28;20850;-88
2022/09/26 01:43:24;;;;;;;9.50;7.87;;;;;;;10.15;100.00;153965.56;5018882;28;20481;-88
2022/09/26 01:45:54;;;;;;;9.90;8.10;;;;;;;10.12;100.00;153957.72;5018751;28;20439;-88
2022/09/26 01:48:25;;;;;;;9.60;8.00;;;;;;;10.09;100.00;153951.25;5018984;28;20605;-88
2022/09/26 01:50:53;;;;;;;8.10;7.20;;;;;;;10.08;100.00;153947.41;5019025;28;20435;-88
2022/09/26 01:53:23;;;;;;;8.07;7.00;;;;;;;10.03;100.00;153935.78;5035393;28;20783;-88
2022/09/26 01:55:55;;;;;;;10.00;8.67;;;;;;;9.99;100.00;153924.09;5018622;28;20446;-88
2022/09/26 01:58:27;;;;;;;9.30;7.17;;;;;;;10.01;100.00;153929.25;5018625;28;20462;-88
2022/09/26 02:00:57;;;;;;;11.20;8.07;;;;;;;10.05;100.00;153940.94;5018960;28;20851;-88
2022/09/26 02:03:27;;;;;;;9.37;6.90;;;;;;;10.04;100.00;153937.03;5035189;28;20434;-88
2022/09/26 02:05:57;;;;;;;11.07;8.53;;;;;;;10.03;100.00;153934.47;5035023;28;20439;-88
2022/09/26 02:08:28;;;;;;;11.50;7.30;;;;;;;10.02;100.00;153931.88;5035372;28;20439;-88
2022/09/26 02:11:01;;;;;;;10.73;8.90;;;;;;;10.01;100.00;153930.56;5018751;28;20474;-88
2022/09/26 02:13:31;;;;;;;9.50;7.60;;;;;;;10.03;100.00;153934.47;5015141;28;20950;-88
2022/09/26 02:16:07;;;;;;;11.37;8.37;;;;;;;10.07;100.00;153944.81;4999023;28;20448;-88
2022/09/26 02:18:37;;;;;;;9.40;7.90;;;;;;;10.08;100.00;153947.41;4998883;28;21089;-88
2022/09/26 02:21:09;;;;;;;14.00;8.57;;;;;;;10.04;100.00;153938.34;5017093;28;20881;-88
2022/09/26 02:23:36;;;;;;;11.50;8.30;;;;;;;10.05;100.00;153939.63;5002813;28;20428;-87
2022/09/26 02:26:02;;;;;;;8.67;7.20;;;;;;;10.05;100.00;153940.94;5002963;28;20475;-88
2022/09/26 02:28:31;;;;;;;9.43;7.40;;;;;;;10.04;100.00;153937.03;5003117;28;20531;-88
2022/09/26 02:31:00;;;;;;;9.77;7.10;;;;;;;10.05;100.00;153940.94;5002953;28;20451;-88
2022/09/26 02:33:28;;;;;;;11.87;7.83;;;;;;;10.04;100.00;153938.34;5002692;28;20448;-88
2022/09/26 02:35:55;;;;;;;9.67;7.83;;;;;;;10.05;100.00;153939.63;5002705;28;20533;-88
2022/09/26 02:38:25;;;;;;;8.63;7.23;;;;;;;10.03;100.00;153934.47;5002274;28;20471;-88
2022/09/26 02:41:12;;;;;;;10.23;7.57;;;;;;;10.05;100.00;153939.63;5002686;28;20440;-88
2022/09/26 02:43:44;;;;;;;8.43;6.00;;;;;;;10.05;100.00;153939.63;5007084;28;20545;-88
2022/09/26 02:46:27;;;;;;;9.53;6.57;;;;;;;10.10;100.00;153952.56;5022254;28;20438;-88
2022/09/26 02:49:07;;;;;;;6.90;6.17;;;;;;;10.11;100.00;153955.19;5022369;28;20466;-88
2022/09/26 02:51:48;;;;;;;7.23;6.10;;;;;;;10.13;100.00;153961.69;5039087;28;20442;-88
2022/09/26 02:54:22;;;;;;;9.70;6.53;;;;;;;10.13;100.00;153961.69;5019123;28;20511;-88
2022/09/26 02:57:03;;;;;;;7.00;6.27;;;;;;;10.14;100.00;153964.25;5002636;28;20451;-88
2022/09/26 02:59:35;;;;;;;7.43;5.80;;;;;;;10.15;100.00;153966.88;5002268;28;20566;-88
2022/09/26 03:02:08;;;;;;;9.00;6.60;;;;;;;10.17;100.00;153970.72;5002317;28;20478;-88
2022/09/26 03:04:41;;;;;;;8.23;6.57;;;;;;;10.18;100.00;153973.34;5002261;28;20431;-88
2022/09/26 03:07:12;;;;;;;6.93;6.03;;;;;;;10.17;100.00;153972.03;5002280;28;20483;-88
2022/09/26 03:09:40;;;;;;;8.13;6.27;;;;;;;10.19;100.00;153975.94;5018792;28;20428;-88
2022/09/26 03:12:08;;;;;;;8.10;6.33;;;;;;;10.19;100.00;153975.94;5002252;28;20446;-88
2022/09/26 03:14:36;;;;;;;9.30;6.17;;;;;;;10.19;100.00;153975.94;5002022;28;20431;-88
2022/09/26 03:17:05;;;;;;;8.80;5.60;;;;;;;10.21;100.00;153982.41;5002324;28;20450;-88
2022/09/26 03:19:36;;;;;;;7.07;6.37;;;;;;;10.25;100.00;153991.44;5001913;28;20476;-88
2022/09/26 03:22:03;;;;;;;8.93;6.30;;;;;;;10.20;100.00;153979.81;5001947;28;20567;-88
2022/09/26 03:24:30;;;;;;;9.60;7.10;;;;;;;10.19;100.00;153977.19;5001787;28;20444;-88
2022/09/26 03:26:59;;;;;;;7.93;6.30;;;;;;;10.19;100.00;153975.94;5001939;28;20450;-88
2022/09/26 03:29:26;;;;;;;7.87;7.00;;;;;;;10.18;100.00;153974.63;5001885;28;20444;-88
2022/09/26 03:31:53;;;;;;;10.20;6.93;;;;;;;10.19;100.00;153977.19;5001009;28;20444;-88
2022/09/26 03:34:21;;;;;;;8.50;6.43;;;;;;;10.19;100.00;153977.19;5001425;28;20452;-88
2022/09/26 03:36:49;;;;;;;8.47;6.63;;;;;;;10.18;100.00;153973.34;5001766;28;20497;-88
2022/09/26 03:39:17;;;;;;;8.17;7.00;;;;;;;10.20;100.00;153978.50;5001644;28;20472;-88
2022/09/26 03:41:49;;;;;;;7.90;6.70;;;;;;;10.20;100.00;153978.50;5004235;28;20446;-88
2022/09/26 03:44:26;;;;;;;8.50;6.67;;;;;;;10.19;100.00;153977.19;5001674;28;20428;-88
2022/09/26 03:47:11;;;;;;;9.87;6.63;;;;;;;10.18;100.00;153973.34;5017845;28;20459;-88
2022/09/26 03:49:42;;;;;;;8.30;6.70;;;;;;;10.19;100.00;153977.19;5000852;28;21010;-75
2022/09/26 03:52:12;;;;;;;10.20;7.73;;;;;;;10.17;100.00;153970.72;5000306;28;20470;-75
2022/09/26 03:54:39;;;;;;;9.40;6.80;;;;;;;10.16;100.00;153969.47;5021979;28;20846;-75
2022/09/26 03:57:06;;;;;;;6.87;5.47;;;;;;;10.15;100.00;153965.56;5040789;28;20551;-75
2022/09/26 03:59:37;;;;;;;6.83;5.90;;;;;;;10.13;100.00;153961.69;5032405;28;20467;-75
2022/09/26 04:02:05;;;;;;;10.23;6.57;;;;;;;10.15;100.00;153965.56;5029870;28;20459;-75
2022/09/26 04:04:36;;;;;;;8.50;7.03;;;;;;;10.12;100.00;153959.09;5015417;28;20458;-75
2022/09/26 04:07:04;;;;;;;6.77;5.80;;;;;;;10.10;100.00;153952.56;5035405;28;20453;-75
2022/09/26 04:09:31;;;;;;;8.93;5.80;;;;;;;10.10;100.00;153953.88;5035768;28;20443;-75
2022/09/26 04:11:59;;;;;;;12.03;6.97;;;;;;;10.13;100.00;153961.69;5033286;28;20895;-75
2022/09/26 04:14:26;;;;;;;9.47;6.83;;;;;;;10.12;100.00;153957.72;5037454;28;20455;-75
2022/09/26 04:16:57;;;;;;;10.30;6.70;;;;;;;10.10;100.00;153952.56;5015605;28;20539;-75
2022/09/26 04:19:30;;;;;;;10.03;7.10;;;;;;;10.07;100.00;153944.81;5016634;28;20513;-75
2022/09/26 04:21:58;;;;;;;7.13;6.00;;;;;;;10.03;100.00;153934.47;5015821;28;20458;-75
2022/09/26 04:24:26;;;;;;;9.00;5.67;;;;;;;10.02;100.00;153931.88;4999594;28;20793;-75
2022/09/26 04:26:53;;;;;;;7.83;6.87;;;;;;;10.01;100.00;153929.25;5015393;28;20471;-75
2022/09/26 04:29:20;;;;;;;7.37;5.70;;;;;;;9.99;100.00;153925.38;4999323;28;20443;-75
2022/09/26 04:32:13;;;;;;;8.10;6.87;;;;;;;10.01;100.00;153930.56;5010253;28;20459;-75
2022/09/26 04:34:52;;;;;;;8.07;7.17;;;;;;;9.97;100.00;153920.22;5014247;28;20439;-75
2022/09/26 04:37:20;;;;;;;7.67;6.80;;;;;;;9.93;100.00;153908.59;5032069;28;20775;-75
2022/09/26 04:39:48;;;;;;;6.97;5.57;;;;;;;9.89;100.00;153899.53;5046194;28;20550;-75
2022/09/26 04:42:15;;;;;;;6.40;5.60;;;;;;;9.86;100.00;153890.44;5017101;28;20945;-75
2022/09/26 04:44:42;;;;;;;9.43;6.33;;;;;;;9.83;100.00;153883.97;5032838;28;20439;-75
2022/09/26 04:47:10;;;;;;;9.40;5.60;;;;;;;9.83;100.00;153883.97;5033199;28;20443;-75
2022/09/26 04:50:09;;;;;;;6.70;5.37;;;;;;;9.82;100.00;153882.69;5034911;28;20807;-75
2022/09/26 04:52:35;;;;;;;5.27;4.77;;;;;;;9.85;100.00;153889.16;5017559;28;20446;-75
2022/09/26 04:55:04;;;;;;;5.73;4.93;;;;;;;9.82;100.00;153881.41;5032383;28;20891;-75
2022/09/26 04:57:31;;;;;;;5.70;4.90;;;;;;;9.80;100.00;153876.22;5016263;28;20482;-75
2022/09/26 04:59:57;;;;;;;5.73;4.60;;;;;;;9.79;100.00;153874.91;5011403;28;20482;-75
2022/09/26 05:02:24;;;;;;;5.57;4.77;;;;;;;9.77;100.00;153869.75;5001126;28;20447;-75
2022/09/26 05:04:54;;;;;;;6.30;5.30;;;;;;;9.79;100.00;153874.91;4998009;28;20440;-75
2022/09/26 05:07:20;;;;;;;6.73;5.20;;;;;;;9.77;100.00;153868.44;5013219;28;20446;-75
2022/09/26 05:09:47;;;;;;;9.43;6.23;;;;;;;9.76;100.00;153867.19;5014887;28;20540;-75
2022/09/26 05:12:17;;;;;;;7.60;6.30;;;;;;;9.72;100.00;153856.81;5029986;28;20454;-75
2022/09/26 05:14:47;;;;;;;7.87;5.93;;;;;;;9.77;100.00;153869.75;5018641;28;20451;-75
2022/09/26 05:17:14;;;;;;;7.40;5.67;;;;;;;9.70;100.00;153851.63;5035723;28;20754;-75
2022/09/26 05:19:41;;;;;;;7.40;6.57;;;;;;;9.65;100.00;153838.72;5035073;28;20482;-75
2022/09/26 05:22:40;;;;;;;6.40;5.30;;;;;;;9.60;100.00;153825.78;5034481;28;20439;-88
2022/09/26 05:27:53;;;;;;;8.10;6.53;;;;;;;9.60;100.00;153825.78;5036069;28;20508;-88
2022/09/26 05:30:20;;;;;;;9.47;6.57;;;;;;;9.58;100.00;153819.31;5035970;28;20435;-88
2022/09/26 05:32:49;;;;;;;21.93;7.37;;;;;;;9.54;100.00;153810.25;5035950;28;20462;-88
2022/09/26 05:35:16;;;;;;;7.60;6.80;;;;;;;9.57;100.00;153818.00;5019241;28;20489;-87
2022/09/26 05:37:44;;;;;;;9.43;6.00;;;;;;;9.56;100.00;153815.41;5019149;28;20477;-88
2022/09/26 05:43:03;;;;;;;6.47;5.70;;;;;;;9.59;100.00;153821.88;5053608;28;20419;-87
2022/09/26 05:45:30;;;;;;;6.10;5.33;;;;;;;9.56;100.00;153815.41;5035688;28;20445;-88
2022/09/26 05:47:57;;;;;;;6.10;5.27;;;;;;;9.56;100.00;153815.41;5019326;28;20431;-87
2022/09/26 05:50:24;;;;;;;9.00;5.90;;;;;;;9.58;100.00;153820.56;5035464;28;20476;-88
2022/09/26 05:52:51;;;;;;;6.40;5.37;;;;;;;9.57;100.00;153818.00;5019177;28;20481;-88
2022/09/26 05:55:23;;;;;;;7.13;5.43;;;;;;;9.55;100.00;153812.84;5034852;28;20438;-88
2022/09/26 05:58:06;;;;;;;7.20;5.83;;;;;;;9.57;100.00;153818.00;5052689;28;20422;-88
2022/09/26 06:00:53;;;;;;;8.00;5.70;;;;;;;9.60;100.00;153825.78;5021055;28;20480;-88
2022/09/26 06:03:20;;;;;;;6.30;5.70;;;;;;;9.62;100.00;153830.94;5014985;28;20840;-88
2022/09/26 06:06:04;;;;;;;5.20;4.70;;;;;;;9.69;100.00;153847.72;5031692;28;20451;-88
2022/09/26 06:08:32;;;;;;;6.37;5.20;;;;;;;9.77;100.00;153869.75;5031834;28;20542;-88
2022/09/26 06:11:28;;;;;;;7.47;5.60;;;;;;;9.82;100.00;153882.69;5007550;28;20926;-88
2022/09/26 06:13:57;;;;;;;8.37;5.43;;;;;;;9.87;100.00;153894.34;5032136;28;20527;-88
2022/09/26 06:16:23;;;;;;;6.87;6.07;;;;;;;9.94;100.00;153912.47;5015442;28;20467;-88
2022/09/26 06:18:54;;;;;;;6.70;5.63;;;;;;;9.98;100.00;153921.53;5031871;28;20916;-88
2022/09/26 06:21:22;;;;;;;7.20;5.67;;;;;;;10.07;100.00;153944.81;5015052;28;20471;-88
2022/09/26 06:24:05;;;;;;;7.53;5.37;;;;;;;10.46;100.00;154045.81;4998574;28;20428;-89
2022/09/26 06:26:32;;;;;;;12.17;5.93;;;;;;;10.90;100.00;154158.50;5007917;28;20785;-89
2022/09/26 06:28:59;;;;;;;8.30;6.27;;;;;;;11.42;100.00;154291.91;5045129;28;20637;-89
2022/09/26 06:31:28;;;;;;;8.67;6.77;;;;;;;11.78;100.00;154385.22;5014485;28;20451;-89
2022/09/26 06:34:25;;;;;;;6.50;5.27;;;;;;;12.05;100.00;154453.94;4997470;28;20538;-89
2022/09/26 06:37:09;;;;;;;5.10;4.60;;;;;;;12.21;100.00;154496.72;5046410;28;20512;-89
2022/09/26 06:39:36;;;;;;;5.40;4.90;;;;;;;12.18;100.00;154488.94;5033811;28;20494;-89
2022/09/26 06:42:06;;;;;;;7.10;5.43;;;;;;;12.15;100.00;154481.16;5017077;28;20457;-90
2022/09/26 06:44:57;;;;;;;5.73;5.00;;;;;;;12.14;100.00;154477.28;5038942;28;20462;-89
2022/09/26 06:47:24;;;;;;;6.70;5.00;;;;;;;11.98;100.00;154435.81;5040543;28;20814;-89
2022/09/26 06:50:03;;;;;;;6.00;4.83;;;;;;;11.88;100.00;154411.19;5014908;28;20842;-89
2022/09/26 06:52:34;;;;;;;4.83;4.33;;;;;;;11.69;100.00;154361.94;5014817;28;20454;-89
2022/09/26 06:55:03;;;;;;;6.17;5.17;;;;;;;11.59;100.00;154335.97;5013982;28;20854;-89
2022/09/26 06:57:36;;;;;;;5.60;4.53;;;;;;;11.57;100.00;154330.75;4998176;28;20501;-89
2022/09/26 07:00:06;;;;;;;5.70;5.10;;;;;;;11.51;100.00;154315.25;5030516;28;20545;-89
2022/09/26 07:02:58;;;;;;;8.27;5.30;;;;;;;11.50;100.00;154312.63;5014306;28;20432;-89
2022/09/26 07:05:44;;;;;;;5.60;4.83;;;;;;;11.45;100.00;154299.69;5014433;28;20459;-89
2022/09/26 07:08:11;;;;;;;4.57;4.17;;;;;;;11.48;100.00;154308.75;5017675;28;20506;-89
2022/09/26 07:10:38;;;;;;;5.57;4.10;;;;;;;11.45;100.00;154299.69;5028177;28;20443;-89
2022/09/26 07:13:10;;;;;;;5.47;4.37;;;;;;;11.56;100.00;154328.19;5038176;28;20437;-89
2022/09/26 07:15:38;;;;;;;5.07;4.57;;;;;;;12.09;100.00;154465.63;5037908;28;20447;-90
2022/09/26 07:18:31;;;;;;;5.40;4.30;;;;;;;12.83;100.00;154654.94;5017131;28;20451;-90
2022/09/26 07:21:14;;;;;;;5.60;4.90;;;;;;;12.94;100.00;154683.50;5038255;28;20481;-89
2022/09/26 07:23:59;;;;;;;4.33;3.93;;;;;;;13.24;100.00;154761.34;5040262;28;20441;-90
2022/09/26 07:26:26;;;;;;;4.40;3.93;;;;;;;13.59;100.00;154849.59;5038509;28;20426;-90
2022/09/26 07:28:53;;;;;;;3.90;3.50;;;;;;;13.91;100.00;154933.97;5038033;28;20526;-89
2022/09/26 07:31:22;;;;;;;4.63;3.30;;;;;;;14.18;100.00;155001.50;5035371;28;20454;-89
2022/09/26 07:34:10;;;;;;;4.97;3.10;;;;;;;14.07;98.92;154974.22;5001014;28;20453;-89
2022/09/26 07:36:38;;;;;;;5.30;3.50;;;;;;;13.85;99.17;154917.06;5025872;28;20800;-89
2022/09/26 07:39:05;;;;;;;4.77;3.43;;;;;;;13.61;98.68;154856.06;5017801;28;20570;-89
2022/09/26 07:41:32;;;;;;;6.70;3.73;;;;;;;13.47;100.00;154819.78;5023450;28;20505;-89
2022/09/26 07:43:59;;;;;;;4.57;3.80;;;;;;;13.28;100.00;154770.44;5009145;28;20451;-89
2022/09/26 07:52:36;;;;;;;4.63;3.90;;;;;;;12.97;100.00;154689.97;4990235;28;20446;-89
2022/09/26 07:55:26;;;;;;;4.23;3.50;;;;;;;12.89;100.00;154670.53;4977962;28;20444;-88
2022/09/26 07:58:13;;;;;;;3.83;3.27;;;;;;;12.86;100.00;154661.44;5025660;28;20436;-88
2022/09/26 08:01:00;;;;;;;3.60;2.60;;;;;;;12.76;100.00;154636.81;5004715;28;20557;-88
2022/09/26 08:03:47;;;;;;;4.60;3.57;;;;;;;12.77;100.00;154640.66;5021641;28;20454;-88
2022/09/26 08:06:26;;;;;;;4.33;3.63;;;;;;;12.82;100.00;154652.31;5020157;28;20467;-88
2022/09/26 08:08:53;;;;;;;4.77;3.50;;;;;;;12.75;100.00;154635.50;5049033;28;20502;-88
2022/09/26 08:11:40;;;;;;;5.37;3.30;;;;;;;12.79;100.00;154644.53;5017414;28;20538;-88
2022/09/26 08:14:27;;;;;;;3.83;3.40;;;;;;;12.77;100.00;154640.66;5012005;28;20786;-88
2022/09/26 08:17:12;;;;;;;3.70;3.40;;;;;;;12.81;100.00;154651.03;5019418;28;20456;-88
2022/09/26 08:19:40;;;;;;;4.40;3.40;;;;;;;12.80;100.00;154647.16;5032906;28;20475;-88
2022/09/26 08:22:07;;;;;;;3.30;3.00;;;;;;;12.83;100.00;154654.94;5003618;28;20455;-88
2022/09/26 08:24:35;;;;;;;5.67;3.40;;;;;;;12.81;100.00;154651.03;5007302;28;20444;-88
2022/09/26 08:27:37;;;;;;;6.33;3.50;;;;;;;12.87;100.00;154664.03;4947620;28;20461;-88
2022/09/26 08:30:06;;;;;;;4.57;3.50;;;;;;;12.86;100.00;154662.72;5032572;28;20454;-88
2022/09/26 08:32:33;;;;;;;4.27;3.87;;;;;;;12.92;100.00;154677.00;5024124;28;20446;-88
2022/09/26 08:35:02;;;;;;;3.43;3.13;;;;;;;13.00;100.00;154699.03;5011484;28;20549;-88
2022/09/26 08:37:48;;;;;;;5.70;3.47;;;;;;;13.06;100.00;154713.28;5026794;28;20561;-88
2022/09/26 08:40:39;;;;;;;3.50;3.10;;;;;;;13.18;100.00;154744.50;5030033;28;20491;-88
2022/09/26 08:43:51;;;;;;;4.27;3.60;;;;;;;13.31;100.00;154778.25;4980822;28;20442;-87
2022/09/26 08:46:41;;;;;;;3.90;3.50;;;;;;;13.34;100.00;154787.28;5012763;28;20558;-88
2022/09/26 08:49:43;;;;;;;4.30;3.90;;;;;;;13.45;100.00;154814.53;5003914;28;20448;-88
2022/09/26 08:52:25;;;;;;;4.00;3.60;;;;;;;13.64;97.84;154863.88;5018882;28;20916;-88
2022/09/26 08:54:53;;;;;;;4.67;4.17;;;;;;;13.96;100.00;154945.66;5027830;28;20452;-88
2022/09/26 08:57:29;;;;;;;4.67;3.40;;;;;;;14.25;100.00;155019.66;5021109;28;20468;-88
2022/09/26 08:59:56;;;;;;;4.13;3.73;;;;;;;14.35;97.73;155046.97;5033119;28;20495;-88
2022/09/26 09:02:29;;;;;;;4.70;3.57;;;;;;;14.47;94.83;155076.84;5010879;28;20947;-88
2022/09/26 09:05:06;;;;;;;5.10;3.60;;;;;;;14.59;95.55;155108.00;4996262;28;20432;-88
2022/09/26 09:07:39;;;;;;;4.53;3.90;;;;;;;14.58;91.48;155105.44;4998337;28;20795;-88
2022/09/26 09:10:10;;;;;;;5.73;3.93;;;;;;;14.61;89.80;155114.50;5032529;28;20444;-88
2022/09/26 09:13:03;;;;;;;5.83;3.40;;;;;;;14.67;87.87;155127.53;5024510;28;20506;-88
2022/09/26 09:16:10;;;;;;;3.97;3.53;;;;;;;14.51;90.45;155087.22;5032582;28;20475;-88
2022/09/26 09:18:58;;;;;;;4.33;3.93;;;;;;;14.62;91.11;155117.09;5032386;28;20442;-88
2022/09/26 09:21:51;;;;;;;4.00;3.37;;;;;;;14.70;90.57;155136.59;5032383;28;20479;-88
2022/09/26 09:24:51;;;;;;;3.67;2.90;;;;;;;14.62;88.66;155117.09;5001079;28;20475;-88
2022/09/26 09:27:27;;;;;;;3.90;3.00;;;;;;;14.64;87.04;155122.28;5036554;28;20809;-88
2022/09/26 09:30:04;;;;;;;3.50;3.20;;;;;;;14.77;85.85;155153.50;5025312;28;20446;-88
2022/09/26 09:33:02;;;;;;;3.40;2.60;;;;;;;14.77;84.44;155153.50;5024819;28;20473;-88
2022/09/26 09:35:56;;;;;;;3.60;2.77;;;;;;;14.87;84.29;155180.78;5035609;28;20451;-88
2022/09/26 09:38:32;;;;;;;3.30;2.70;;;;;;;15.01;84.42;155217.13;5046711;28;20861;-88
2022/09/26 09:41:07;;;;;;;2.90;2.63;;;;;;;14.96;82.49;155204.13;5053329;28;20478;-88
2022/09/26 09:43:37;;;;;;;3.10;2.27;;;;;;;14.98;82.19;155209.38;5003985;28;20451;-88
2022/09/26 09:46:06;;;;;;;3.23;2.93;;;;;;;15.00;83.63;155213.25;5012661;28;20471;-88
2022/09/26 09:48:33;;;;;;;3.60;2.90;;;;;;;15.03;83.30;155221.03;5049685;28;20537;-88
2022/09/26 09:51:18;;;;;;;6.43;3.40;;;;;;;15.05;81.95;155226.22;5024133;28;20473;-88
2022/09/26 09:54:01;;;;;;;4.10;3.10;;;;;;;14.97;81.25;155205.44;4998626;28;20513;-88
2022/09/26 09:56:35;;;;;;;3.43;3.07;;;;;;;14.98;82.26;155209.38;5008493;28;20447;-88
2022/09/26 09:59:18;;;;;;;3.67;3.07;;;;;;;15.00;84.27;155214.56;5014889;28;20797;-88
2022/09/26 10:02:00;;;;;;;5.70;3.10;;;;;;;15.02;84.46;155218.44;5030369;28;20486;-88
2022/09/26 10:04:34;;;;;;;3.30;3.00;;;;;;;15.05;85.65;155227.53;5040533;28;20451;-88
2022/09/26 10:07:02;;;;;;;5.93;3.00;;;;;;;15.15;86.86;155252.22;5013328;28;20509;-88
2022/09/26 10:09:37;;;;;;;4.97;3.13;;;;;;;15.23;86.21;155274.31;5030810;28;20434;-88
2022/09/26 10:12:31;;;;;;;3.50;3.07;;;;;;;15.37;81.99;155309.41;5019334;28;20451;-88
2022/09/26 10:15:19;;;;;;;6.23;3.27;;;;;;;15.37;82.92;155309.41;5034215;28;20431;-88
2022/09/26 10:18:10;;;;;;;4.47;3.00;;;;;;;15.34;87.26;155301.59;5019148;28;20455;-87
2022/09/26 10:20:46;;;;;;;3.90;2.67;;;;;;;15.32;84.57;155296.41;5005977;28;20992;-88
2022/09/26 10:23:21;;;;;;;3.40;2.70;;;;;;;15.20;82.00;155265.19;5030165;28;20439;-88
2022/09/26 10:25:50;;;;;;;4.10;2.63;;;;;;;15.26;81.36;155280.81;5018251;28;20838;-88
2022/09/26 10:28:30;;;;;;;4.83;3.07;;;;;;;15.16;86.93;155254.81;5017187;28;20443;-88
2022/09/26 10:31:03;;;;;;;4.40;2.90;;;;;;;15.08;79.24;155234.03;5013739;28;20457;-87
2022/09/26 10:33:36;;;;;;;2.80;2.50;;;;;;;15.12;80.24;155244.41;5005827;28;20451;-87
2022/09/26 10:36:19;;;;;;;2.63;2.27;;;;;;;15.35;80.68;155304.22;5009330;28;20435;-88
2022/09/26 10:41:45;;;;;;;3.10;2.20;;;;;;;15.60;76.16;155369.22;5001261;28;21061;-88
2022/09/26 10:44:23;;;;;;;2.73;2.23;;;;;;;15.66;72.87;155383.53;5007771;28;20450;-88
2022/09/26 10:47:24;;;;;;;2.67;2.40;;;;;;;15.72;73.78;155400.47;4994246;28;20461;-87
2022/09/26 10:50:12;;;;;;;2.17;1.80;;;;;;;15.78;71.46;155416.03;5038545;28;20506;-88
2022/09/26 10:53:07;;;;;;;2.20;1.90;;;;;;;15.71;75.98;155397.84;5008629;28;20445;-87
2022/09/26 10:55:39;;;;;;;2.30;2.07;;;;;;;15.74;73.29;155404.34;5010459;28;20448;-76
2022/09/26 10:58:07;;;;;;;3.17;2.17;;;;;;;15.82;71.34;155426.44;5009937;28;20458;-75
2022/09/26 11:00:38;;;;;;;3.07;2.20;;;;;;;15.75;72.70;155408.22;5002584;28;20515;-76
2022/09/26 11:03:13;;;;;;;2.47;2.27;;;;;;;15.72;75.48;155399.16;5008214;28;20466;-76
2022/09/26 11:06:00;;;;;;;2.97;1.70;;;;;;;15.66;72.31;155383.53;5043389;28;20473;-76
2022/09/26 11:08:31;;;;;;;3.03;1.80;;;;;;;15.58;71.16;155364.03;5002380;28;20559;-76
2022/09/26 11:11:32;;;;;;;2.97;1.77;;;;;;;15.72;71.93;155399.16;5019864;28;20547;-76
2022/09/26 11:14:02;;;;;;;1.90;1.70;;;;;;;15.96;70.35;155460.25;5012216;28;20520;-76
2022/09/26 11:16:37;;;;;;;2.00;1.70;;;;;;;15.99;69.32;155469.31;5017555;28;20457;-76
2022/09/26 11:19:10;;;;;;;2.10;1.80;;;;;;;16.03;67.80;155478.44;5032066;28;20811;-75
2022/09/26 11:21:41;;;;;;;3.30;1.70;;;;;;;16.24;69.30;155533.06;5029764;28;20938;-75
2022/09/26 11:24:13;;;;;;;2.60;1.67;;;;;;;16.30;66.44;155548.66;5017465;28;20446;-76
2022/09/26 11:26:48;;;;;;;2.30;1.67;;;;;;;16.33;68.08;155557.78;5045803;28;20962;-76
2022/09/26 11:29:17;;;;;;;4.07;1.40;;;;;;;16.31;68.42;155552.56;5048456;28;20537;-76
2022/09/26 11:31:56;;;;;;;1.77;1.67;;;;;;;16.32;69.89;155555.16;5003496;28;20451;-75
2022/09/26 11:34:28;;;;;;;3.13;1.17;;;;;;;16.31;67.45;155551.25;5034761;28;20517;-76
2022/09/26 11:37:17;;;;;;;1.87;1.40;;;;;;;16.11;67.91;155500.56;5043832;28;20462;-76
2022/09/26 11:39:57;;;;;;;3.50;1.67;;;;;;;16.05;72.96;155483.63;5003168;28;20806;-76
2022/09/26 11:42:33;;;;;;;2.63;1.60;;;;;;;15.87;66.49;155436.81;5017580;28;20478;-76
2022/09/26 11:45:05;;;;;;;1.87;1.20;;;;;;;15.66;68.36;155383.53;5008582;28;20545;-76
2022/09/26 11:48:13;;;;;;;2.80;1.37;;;;;;;15.58;69.75;155364.03;5046271;28;20443;-76
2022/09/26 11:51:05;;;;;;;1.80;1.17;;;;;;;15.46;69.72;155331.56;5020566;28;20454;-76
2022/09/26 11:54:04;;;;;;;1.70;1.20;;;;;;;15.40;72.72;155317.22;5015742;28;20439;-76
2022/09/26 11:56:45;;;;;;;2.33;1.30;;;;;;;15.46;67.32;155332.81;5028508;28;20490;-76
2022/09/26 11:59:29;;;;;;;1.63;1.30;;;;;;;15.47;68.73;155335.44;5020940;28;20460;-75
2022/09/26 12:02:08;;;;;;;1.30;1.17;;;;;;;15.39;70.06;155313.28;5018191;28;21002;-76
2022/09/26 12:04:52;;;;;;;1.40;1.20;;;;;;;15.38;73.24;155311.97;5014341;28;20462;-75
2022/09/26 12:07:21;;;;;;;1.30;1.20;;;;;;;15.36;70.43;155306.78;5033460;28;20462;-75
2022/09/26 12:09:59;;;;;;;2.60;1.50;;;;;;;15.34;72.54;155301.59;5014795;28;20451;-74